Time;durP1;ratioP1;P1;durP2;ratioP2;P2;SDS_P1;SDS_P2;PMS_P1;PMS_P2;Temp;Humidity;BMP_temperature;BMP_pressure;BME280_temperature;BME280_humidity;BME280_pressure;Samples;Min_cycle;Max_cycle;Signal;HPM_P1;HPM_P2
2021/08/16 00:00:59;;;;;;;13.85;6.93;;;;;;;;;;4970240;28;20026;-66
2021/08/16 00:03:25;;;;;;;14.20;6.32;;;;;;;;;;4970417;28;20027;-67
2021/08/16 00:05:50;;;;;;;13.85;7.10;;;;;;;;;;4970656;28;20031;-67
2021/08/16 00:08:15;;;;;;;13.70;7.17;;;;;;;;;;4969960;28;20038;-67
2021/08/16 00:10:40;;;;;;;12.67;7.63;;;;;;;;;;4970606;28;20362;-67
2021/08/16 00:13:05;;;;;;;14.15;7.25;;;;;;;;;;4970344;28;20262;-67
2021/08/16 00:15:30;;;;;;;14.02;7.63;;;;;;;;;;4970129;28;20027;-67
2021/08/16 00:17:59;;;;;;;16.20;8.20;;;;;;;;;;4970387;28;20023;-66
2021/08/16 00:20:25;;;;;;;18.90;9.18;;;;;;;;;;4970483;28;20098;-67
2021/08/16 00:22:50;;;;;;;14.18;8.45;;;;;;;;;;4970408;28;20158;-67
2021/08/16 00:25:15;;;;;;;16.03;9.00;;;;;;;;;;4970120;28;20022;-67
2021/08/16 00:27:40;;;;;;;15.38;9.38;;;;;;;;;;4969760;28;20380;-67
2021/08/16 00:30:06;;;;;;;15.93;8.47;;;;;;;;;;4970339;28;20462;-66
2021/08/16 00:32:31;;;;;;;19.67;10.25;;;;;;;;;;4970459;28;20259;-67
2021/08/16 00:34:56;;;;;;;17.30;9.27;;;;;;;;;;4970302;28;20384;-66
2021/08/16 00:37:21;;;;;;;17.55;9.68;;;;;;;;;;4970092;28;20274;-67
2021/08/16 00:39:46;;;;;;;16.25;8.77;;;;;;;;;;4968791;28;20050;-66
2021/08/16 00:42:12;;;;;;;16.53;8.33;;;;;;;;;;4970393;28;20058;-67
2021/08/16 00:44:38;;;;;;;15.82;8.85;;;;;;;;;;4969871;28;20942;-67
2021/08/16 00:47:04;;;;;;;13.18;8.90;;;;;;;;;;4970584;28;20042;-67
2021/08/16 00:49:29;;;;;;;12.85;7.88;;;;;;;;;;4970603;28;20282;-67
2021/08/16 00:51:54;;;;;;;13.30;8.07;;;;;;;;;;4970120;28;20031;-67
2021/08/16 00:54:19;;;;;;;15.00;7.00;;;;;;;;;;4969945;28;20390;-67
2021/08/16 00:56:45;;;;;;;13.45;8.05;;;;;;;;;;4970343;28;20274;-67
2021/08/16 00:59:11;;;;;;;10.48;6.90;;;;;;;;;;4968552;28;20030;-67
2021/08/16 01:01:36;;;;;;;12.32;6.80;;;;;;;;;;4970494;28;20023;-66
2021/08/16 01:04:01;;;;;;;11.40;6.95;;;;;;;;;;4969891;28;20085;-67
2021/08/16 01:06:27;;;;;;;16.63;7.40;;;;;;;;;;4968843;28;20035;-67
2021/08/16 01:08:52;;;;;;;14.18;7.50;;;;;;;;;;4970000;28;20281;-66
2021/08/16 01:11:18;;;;;;;16.27;9.10;;;;;;;;;;4969937;28;20022;-67
2021/08/16 01:13:45;;;;;;;14.27;7.85;;;;;;;;;;4968479;28;20027;-67
2021/08/16 01:16:10;;;;;;;11.30;6.65;;;;;;;;;;4969885;28;20014;-67
2021/08/16 01:18:36;;;;;;;11.98;6.93;;;;;;;;;;4970009;28;20025;-66
2021/08/16 01:21:02;;;;;;;14.10;8.18;;;;;;;;;;4969596;28;20455;-67
2021/08/16 01:23:27;;;;;;;13.77;7.30;;;;;;;;;;4984346;28;20025;-67
2021/08/16 01:25:53;;;;;;;11.30;6.90;;;;;;;;;;4970524;28;20185;-66
2021/08/16 01:28:19;;;;;;;15.88;7.00;;;;;;;;;;4970017;28;20113;-67
2021/08/16 01:30:45;;;;;;;13.63;6.93;;;;;;;;;;4963883;28;20027;-67
2021/08/16 01:33:11;;;;;;;12.93;6.80;;;;;;;;;;4963668;28;20054;-67
2021/08/16 01:35:36;;;;;;;14.27;8.10;;;;;;;;;;4969529;28;20023;-67
2021/08/16 01:38:01;;;;;;;13.30;7.45;;;;;;;;;;4971186;28;20027;-67
2021/08/16 01:40:27;;;;;;;11.02;6.68;;;;;;;;;;4972821;28;20022;-67
2021/08/16 01:42:52;;;;;;;13.13;7.23;;;;;;;;;;4972744;28;20066;-66
2021/08/16 01:45:17;;;;;;;14.97;7.33;;;;;;;;;;4972806;28;20261;-68
2021/08/16 01:47:42;;;;;;;16.15;8.00;;;;;;;;;;4973095;28;20290;-66
2021/08/16 01:50:08;;;;;;;16.48;8.00;;;;;;;;;;4972243;28;20022;-67
2021/08/16 01:52:33;;;;;;;16.70;8.13;;;;;;;;;;4972422;28;20023;-67
2021/08/16 01:54:58;;;;;;;17.63;7.47;;;;;;;;;;4972815;28;20030;-66
2021/08/16 01:57:23;;;;;;;13.63;7.22;;;;;;;;;;4972481;28;20026;-67
2021/08/16 01:59:49;;;;;;;18.45;9.05;;;;;;;;;;4972648;28;20026;-66
2021/08/16 02:02:14;;;;;;;14.23;7.55;;;;;;;;;;4972507;28;20081;-66
2021/08/16 02:04:39;;;;;;;12.57;7.57;;;;;;;;;;4972515;28;20018;-66
2021/08/16 02:07:04;;;;;;;18.70;7.67;;;;;;;;;;4971307;28;20294;-67
2021/08/16 02:09:29;;;;;;;13.95;8.23;;;;;;;;;;4972773;28;20254;-67
2021/08/16 02:11:54;;;;;;;14.47;8.00;;;;;;;;;;4972184;28;20585;-67
2021/08/16 02:14:19;;;;;;;11.33;7.97;;;;;;;;;;4972012;28;20364;-67
2021/08/16 02:16:46;;;;;;;17.10;7.97;;;;;;;;;;4972348;28;20285;-67
2021/08/16 02:19:11;;;;;;;11.57;7.00;;;;;;;;;;4972419;28;20254;-67
2021/08/16 02:21:36;;;;;;;12.30;7.73;;;;;;;;;;4971806;28;20069;-66
2021/08/16 02:24:01;;;;;;;12.83;6.87;;;;;;;;;;4972164;28;20362;-67
2021/08/16 02:26:26;;;;;;;15.23;7.75;;;;;;;;;;4974289;28;20270;-67
2021/08/16 02:28:52;;;;;;;13.20;8.27;;;;;;;;;;4972236;28;20411;-66
2021/08/16 02:31:23;;;;;;;13.63;7.30;;;;;;;;;;4972049;28;20294;-67
2021/08/16 02:33:48;;;;;;;15.52;7.90;;;;;;;;;;4972199;28;20277;-66
2021/08/16 02:36:13;;;;;;;12.82;7.55;;;;;;;;;;4971865;28;20019;-66
2021/08/16 02:38:38;;;;;;;14.70;7.68;;;;;;;;;;4971955;28;20750;-66
2021/08/16 02:41:04;;;;;;;14.57;8.53;;;;;;;;;;4972088;28;20270;-68
2021/08/16 02:43:29;;;;;;;14.27;7.50;;;;;;;;;;4971485;28;20777;-67
2021/08/16 02:45:54;;;;;;;13.13;6.80;;;;;;;;;;4971870;28;20401;-67
2021/08/16 02:48:19;;;;;;;12.23;6.97;;;;;;;;;;4971068;28;20733;-67
2021/08/16 02:50:45;;;;;;;13.55;7.28;;;;;;;;;;4971026;28;20023;-67
2021/08/16 02:53:10;;;;;;;12.07;6.93;;;;;;;;;;4971348;28;20475;-66
2021/08/16 02:55:35;;;;;;;15.47;7.60;;;;;;;;;;4977697;28;20010;-66
2021/08/16 02:58:00;;;;;;;13.30;6.90;;;;;;;;;;4971456;28;20558;-66
2021/08/16 03:00:26;;;;;;;13.05;7.72;;;;;;;;;;4971753;28;20407;-65
2021/08/16 03:02:51;;;;;;;13.88;7.15;;;;;;;;;;4971276;28;20051;-66
2021/08/16 03:05:16;;;;;;;13.50;7.83;;;;;;;;;;4971323;28;20022;-66
2021/08/16 03:07:41;;;;;;;14.35;7.47;;;;;;;;;;4971290;28;20298;-67
2021/08/16 03:10:08;;;;;;;14.63;7.43;;;;;;;;;;4971393;28;20093;-66
2021/08/16 03:12:33;;;;;;;12.88;7.53;;;;;;;;;;4971148;28;20069;-67
2021/08/16 03:14:58;;;;;;;14.60;7.25;;;;;;;;;;4971156;28;20470;-66
2021/08/16 03:17:23;;;;;;;12.93;6.78;;;;;;;;;;4971073;28;20050;-66
2021/08/16 03:19:48;;;;;;;13.77;6.97;;;;;;;;;;4971279;28;20027;-66
2021/08/16 03:22:14;;;;;;;13.80;7.50;;;;;;;;;;4971066;28;20363;-66
2021/08/16 03:24:39;;;;;;;13.65;6.57;;;;;;;;;;4971430;28;20033;-67
2021/08/16 03:27:04;;;;;;;14.33;7.67;;;;;;;;;;4974573;28;20031;-65
2021/08/16 03:29:29;;;;;;;13.15;7.40;;;;;;;;;;4971438;28;20273;-66
2021/08/16 03:31:54;;;;;;;15.43;7.90;;;;;;;;;;4971051;28;20027;-68
2021/08/16 03:34:20;;;;;;;12.80;7.82;;;;;;;;;;4970948;28;20023;-67
2021/08/16 03:36:45;;;;;;;10.00;6.97;;;;;;;;;;4971143;28;20019;-67
2021/08/16 03:39:10;;;;;;;13.73;7.68;;;;;;;;;;4970553;28;20345;-67
2021/08/16 03:41:35;;;;;;;14.17;7.47;;;;;;;;;;4970921;28;20022;-67
2021/08/16 03:44:01;;;;;;;13.57;7.50;;;;;;;;;;4970285;28;20341;-66
2021/08/16 03:46:26;;;;;;;17.80;7.38;;;;;;;;;;4970779;28;20011;-67
2021/08/16 03:48:51;;;;;;;14.32;7.43;;;;;;;;;;4970468;28;20034;-66
2021/08/16 03:51:17;;;;;;;14.23;7.22;;;;;;;;;;4970492;28;20054;-66
2021/08/16 03:53:42;;;;;;;17.55;8.13;;;;;;;;;;4970456;28;20125;-68
2021/08/16 03:56:10;;;;;;;12.60;6.85;;;;;;;;;;4971946;28;20029;-66
2021/08/16 03:58:36;;;;;;;14.38;7.63;;;;;;;;;;4970563;28;20019;-67
2021/08/16 04:01:01;;;;;;;10.32;7.30;;;;;;;;;;4970330;28;20486;-66
2021/08/16 04:03:26;;;;;;;14.40;7.47;;;;;;;;;;4970520;28;20015;-66
2021/08/16 04:05:51;;;;;;;13.95;7.43;;;;;;;;;;4970592;28;20106;-67
2021/08/16 04:08:17;;;;;;;14.20;7.67;;;;;;;;;;4970009;28;20038;-66
2021/08/16 04:10:42;;;;;;;10.32;7.07;;;;;;;;;;4970478;28;20265;-67
2021/08/16 04:13:07;;;;;;;10.50;7.05;;;;;;;;;;4970195;28;20027;-67
2021/08/16 04:15:32;;;;;;;14.45;7.60;;;;;;;;;;4970596;28;20422;-67
2021/08/16 04:17:57;;;;;;;15.38;7.85;;;;;;;;;;4970229;28;20015;-67
2021/08/16 04:20:23;;;;;;;10.93;7.03;;;;;;;;;;4970441;28;20023;-66
2021/08/16 04:22:48;;;;;;;10.95;7.10;;;;;;;;;;4970129;28;20035;-66
2021/08/16 04:25:15;;;;;;;12.43;7.05;;;;;;;;;;4973591;28;20414;-67
2021/08/16 04:27:40;;;;;;;12.23;7.53;;;;;;;;;;4972333;28;20031;-68
2021/08/16 04:30:07;;;;;;;15.40;7.68;;;;;;;;;;4952135;28;20039;-67
2021/08/16 04:32:32;;;;;;;10.73;7.65;;;;;;;;;;4967843;28;20434;-67
2021/08/16 04:34:57;;;;;;;14.80;7.10;;;;;;;;;;4970139;28;20033;-67
2021/08/16 04:37:22;;;;;;;12.77;7.10;;;;;;;;;;4970524;28;20027;-66
2021/08/16 04:39:47;;;;;;;13.90;6.95;;;;;;;;;;4969932;28;20294;-66
2021/08/16 04:42:13;;;;;;;11.55;7.63;;;;;;;;;;4970193;28;20027;-66
2021/08/16 04:44:38;;;;;;;14.25;7.25;;;;;;;;;;4969961;28;20050;-67
2021/08/16 04:47:03;;;;;;;14.80;7.07;;;;;;;;;;4970062;28;20049;-67
2021/08/16 04:49:28;;;;;;;11.15;6.72;;;;;;;;;;4970220;28;20661;-67
2021/08/16 04:51:53;;;;;;;14.55;7.72;;;;;;;;;;4970668;28;20026;-66
2021/08/16 04:54:19;;;;;;;14.73;7.45;;;;;;;;;;4969984;28;20352;-66
2021/08/16 04:56:44;;;;;;;11.20;7.07;;;;;;;;;;4972509;28;20023;-66
2021/08/16 04:59:09;;;;;;;14.82;8.00;;;;;;;;;;4969537;28;20073;-67
2021/08/16 05:01:36;;;;;;;12.57;7.13;;;;;;;;;;4970230;28;20023;-67
2021/08/16 05:04:01;;;;;;;11.98;6.75;;;;;;;;;;4950718;28;20027;-66
2021/08/16 05:06:29;;;;;;;14.35;7.18;;;;;;;;;;4968718;28;20122;-67
2021/08/16 05:08:55;;;;;;;14.13;7.40;;;;;;;;;;4970499;28;20441;-67
2021/08/16 05:11:20;;;;;;;12.13;7.38;;;;;;;;;;4969850;28;20130;-66
2021/08/16 05:13:45;;;;;;;12.37;6.90;;;;;;;;;;4973039;28;20030;-67
2021/08/16 05:16:10;;;;;;;12.50;7.70;;;;;;;;;;4972178;28;20279;-67
2021/08/16 05:18:37;;;;;;;16.90;8.07;;;;;;;;;;4974073;28;20657;-67
2021/08/16 05:21:02;;;;;;;10.35;6.65;;;;;;;;;;4972181;28;20080;-67
2021/08/16 05:23:27;;;;;;;15.23;8.85;;;;;;;;;;4973696;28;20059;-66
2021/08/16 05:25:52;;;;;;;13.73;8.53;;;;;;;;;;4973600;28;20105;-67
2021/08/16 05:28:18;;;;;;;12.63;7.25;;;;;;;;;;4971865;28;20430;-66
2021/08/16 05:30:43;;;;;;;13.82;8.45;;;;;;;;;;4984353;28;20019;-66
2021/08/16 05:33:08;;;;;;;12.48;6.28;;;;;;;;;;4973785;28;20768;-67
2021/08/16 05:35:33;;;;;;;15.27;6.20;;;;;;;;;;4973594;28;20023;-67
2021/08/16 05:37:59;;;;;;;9.50;6.50;;;;;;;;;;4973225;28;20023;-67
2021/08/16 05:40:24;;;;;;;11.60;6.15;;;;;;;;;;4973603;28;20026;-67
2021/08/16 05:42:49;;;;;;;8.60;5.40;;;;;;;;;;4973421;28;20035;-66
2021/08/16 05:45:14;;;;;;;9.93;4.75;;;;;;;;;;4973282;28;20026;-67
2021/08/16 05:47:40;;;;;;;10.32;5.53;;;;;;;;;;4973500;28;20402;-67
2021/08/16 05:50:05;;;;;;;10.55;5.93;;;;;;;;;;4972707;28;20080;-66
2021/08/16 05:52:31;;;;;;;7.85;5.18;;;;;;;;;;4973139;28;20022;-66
2021/08/16 05:54:56;;;;;;;8.38;4.60;;;;;;;;;;4973725;28;20565;-67
2021/08/16 05:57:21;;;;;;;8.60;4.67;;;;;;;;;;4976303;28;20031;-66
2021/08/16 05:59:47;;;;;;;8.90;4.50;;;;;;;;;;4972989;28;20365;-67
2021/08/16 06:02:12;;;;;;;8.18;4.65;;;;;;;;;;4972834;28;20034;-66
2021/08/16 06:04:37;;;;;;;8.10;5.35;;;;;;;;;;4973022;28;20411;-67
2021/08/16 06:07:02;;;;;;;8.20;4.93;;;;;;;;;;4972355;28;20041;-67
2021/08/16 06:09:29;;;;;;;7.75;4.40;;;;;;;;;;4972664;28;20262;-67
2021/08/16 06:11:54;;;;;;;9.20;4.50;;;;;;;;;;4972923;28;20089;-67
2021/08/16 06:14:19;;;;;;;6.83;4.57;;;;;;;;;;4972544;28;20407;-67
2021/08/16 06:16:44;;;;;;;7.45;4.07;;;;;;;;;;4972765;28;20331;-67
2021/08/16 06:19:10;;;;;;;9.15;4.38;;;;;;;;;;4972791;28;20023;-66
2021/08/16 06:21:40;;;;;;;8.43;4.40;;;;;;;;;;4972266;28;20092;-67
2021/08/16 06:24:05;;;;;;;;;;;;;;;;;;4969776;28;20278;-67
2021/08/16 06:26:30;;;;;;;6.32;3.97;;;;;;;;;;4973658;28;19909;-67
2021/08/16 06:28:55;;;;;;;7.50;4.63;;;;;;;;;;4972455;28;20516;-65
2021/08/16 06:31:20;;;;;;;6.35;4.32;;;;;;;;;;4972116;28;20262;-66
2021/08/16 06:33:45;;;;;;;8.67;4.80;;;;;;;;;;4972318;28;20029;-67
2021/08/16 06:36:11;;;;;;;9.20;4.27;;;;;;;;;;4972470;28;20258;-67
2021/08/16 06:38:36;;;;;;;10.40;4.70;;;;;;;;;;4971867;28;20574;-66
2021/08/16 06:41:02;;;;;;;5.75;3.80;;;;;;;;;;4972174;28;20093;-66
2021/08/16 06:43:27;;;;;;;8.88;3.63;;;;;;;;;;4971935;28;20047;-66
2021/08/16 06:45:53;;;;;;;6.07;3.58;;;;;;;;;;4971977;28;20521;-65
2021/08/16 06:48:18;;;;;;;6.88;4.10;;;;;;;;;;4971687;28;20130;-67
2021/08/16 06:50:44;;;;;;;6.72;4.20;;;;;;;;;;4971767;28;20085;-66
2021/08/16 06:53:13;;;;;;;6.43;3.80;;;;;;;;;;4971506;28;20018;-66
2021/08/16 06:55:39;;;;;;;7.03;3.15;;;;;;;;;;4977297;28;20023;-66
2021/08/16 06:58:04;;;;;;;8.45;3.45;;;;;;;;;;4971301;28;20586;-66
2021/08/16 07:00:29;;;;;;;7.20;3.47;;;;;;;;;;4971750;28;20035;-67
2021/08/16 07:02:55;;;;;;;6.47;3.78;;;;;;;;;;4971648;28;20791;-68
2021/08/16 07:05:20;;;;;;;8.57;3.50;;;;;;;;;;4971645;28;20031;-66
2021/08/16 07:07:47;;;;;;;7.40;3.10;;;;;;;;;;4971514;28;20293;-66
2021/08/16 07:10:12;;;;;;;6.00;3.45;;;;;;;;;;4971391;28;20352;-66
2021/08/16 07:12:37;;;;;;;7.28;3.83;;;;;;;;;;4971806;28;20526;-66
2021/08/16 07:15:02;;;;;;;6.07;3.47;;;;;;;;;;4971085;28;20023;-66
2021/08/16 07:17:28;;;;;;;6.43;4.05;;;;;;;;;;4971501;28;20773;-66
2021/08/16 07:19:53;;;;;;;8.43;4.60;;;;;;;;;;4971508;28;20134;-65
2021/08/16 07:22:18;;;;;;;7.07;4.18;;;;;;;;;;4971133;28;20711;-67
2021/08/16 07:24:43;;;;;;;6.53;3.80;;;;;;;;;;4971438;28;20129;-66
2021/08/16 07:27:08;;;;;;;9.35;4.40;;;;;;;;;;4973969;28;20298;-66
2021/08/16 07:29:34;;;;;;;8.32;3.95;;;;;;;;;;4969502;28;20022;-66
2021/08/16 07:31:59;;;;;;;5.97;3.57;;;;;;;;;;4971326;28;20027;-68
2021/08/16 07:34:24;;;;;;;8.20;4.40;;;;;;;;;;4971197;28;20305;-66
2021/08/16 07:36:50;;;;;;;6.55;3.80;;;;;;;;;;4970999;28;20034;-66
2021/08/16 07:39:16;;;;;;;7.53;3.80;;;;;;;;;;4971011;28;20050;-67
2021/08/16 07:41:41;;;;;;;6.65;3.88;;;;;;;;;;4985721;28;20268;-67
2021/08/16 07:44:06;;;;;;;9.32;4.65;;;;;;;;;;4970654;28;20410;-66
2021/08/16 07:46:31;;;;;;;10.35;4.93;;;;;;;;;;4970925;28;20054;-66
2021/08/16 07:48:57;;;;;;;6.72;4.05;;;;;;;;;;4970422;28;20040;-67
2021/08/16 07:51:22;;;;;;;10.45;4.90;;;;;;;;;;4970768;28;20026;-67
2021/08/16 07:53:47;;;;;;;9.43;4.40;;;;;;;;;;4970812;28;20022;-66
2021/08/16 07:56:12;;;;;;;8.55;5.00;;;;;;;;;;4970661;28;20423;-65
2021/08/16 07:58:37;;;;;;;6.47;3.57;;;;;;;;;;4971295;28;20027;-66
2021/08/16 08:01:02;;;;;;;6.83;5.07;;;;;;;;;;4970658;28;20306;-65
2021/08/16 08:03:29;;;;;;;8.33;4.27;;;;;;;;;;4971011;28;20618;-66
2021/08/16 08:05:54;;;;;;;8.90;4.40;;;;;;;;;;4970494;28;20324;-68
2021/08/16 08:08:20;;;;;;;8.13;4.25;;;;;;;;;;4970650;28;20026;-67
2021/08/16 08:10:45;;;;;;;6.20;4.50;;;;;;;;;;4970270;28;20062;-66
2021/08/16 08:13:10;;;;;;;8.05;3.97;;;;;;;;;;4970487;28;20061;-66
2021/08/16 08:15:35;;;;;;;8.23;4.40;;;;;;;;;;4978658;28;20114;-66
2021/08/16 08:18:00;;;;;;;7.63;3.95;;;;;;;;;;4970407;28;20062;-66
2021/08/16 08:20:26;;;;;;;11.70;4.00;;;;;;;;;;4970423;28;20019;-66
2021/08/16 08:22:51;;;;;;;5.97;4.43;;;;;;;;;;4970932;28;20301;-65
2021/08/16 08:25:16;;;;;;;8.38;4.50;;;;;;;;;;4973873;28;20370;-66
2021/08/16 08:27:41;;;;;;;6.37;4.03;;;;;;;;;;4971509;28;20031;-65
2021/08/16 08:30:08;;;;;;;8.20;4.00;;;;;;;;;;4970065;28;20345;-66
2021/08/16 08:32:42;;;;;;;5.82;3.60;;;;;;;;;;4970273;28;20027;-67
2021/08/16 08:35:07;;;;;;;8.68;4.60;;;;;;;;;;4970177;28;20019;-67
2021/08/16 08:37:32;;;;;;;7.28;4.45;;;;;;;;;;4970184;28;20037;-66
2021/08/16 08:39:57;;;;;;;8.23;4.33;;;;;;;;;;4969962;28;20046;-66
2021/08/16 08:42:23;;;;;;;7.53;4.13;;;;;;;;;;4970030;28;20381;-66
2021/08/16 08:44:48;;;;;;;10.33;4.10;;;;;;;;;;4970016;28;20631;-67
2021/08/16 08:47:14;;;;;;;7.32;4.32;;;;;;;;;;4970926;28;20325;-67
2021/08/16 08:49:40;;;;;;;8.50;4.47;;;;;;;;;;4973959;28;20474;-67
2021/08/16 08:52:05;;;;;;;7.43;3.88;;;;;;;;;;4973979;28;20042;-67
2021/08/16 08:54:31;;;;;;;7.85;4.57;;;;;;;;;;4973784;28;20083;-66
2021/08/16 08:56:56;;;;;;;6.75;4.53;;;;;;;;;;4975753;28;20015;-66
2021/08/16 08:59:22;;;;;;;8.27;4.75;;;;;;;;;;4973912;28;20049;-67
2021/08/16 09:01:55;;;;;;;6.32;3.65;;;;;;;;;;4973932;28;20023;-66
2021/08/16 09:04:20;;;;;;;7.53;4.32;;;;;;;;;;4973897;28;20414;-67
2021/08/16 09:06:46;;;;;;;6.72;4.47;;;;;;;;;;4973870;28;20023;-66
2021/08/16 09:09:12;;;;;;;7.75;4.63;;;;;;;;;;4973927;28;20033;-67
2021/08/16 09:11:37;;;;;;;6.93;4.40;;;;;;;;;;4973815;28;20027;-67
2021/08/16 09:14:06;;;;;;;8.43;4.72;;;;;;;;;;4973673;28;20418;-66
2021/08/16 09:16:33;;;;;;;8.48;4.80;;;;;;;;;;4973455;28;20419;-67
2021/08/16 09:18:59;;;;;;;10.13;5.85;;;;;;;;;;4973272;28;20026;-66
2021/08/16 09:21:29;;;;;;;8.70;4.20;;;;;;;;;;4960922;28;20029;-67
2021/08/16 09:23:54;;;;;;;7.15;4.47;;;;;;;;;;4967268;28;20026;-66
2021/08/16 09:26:30;;;;;;;8.10;4.55;;;;;;;;;;4979314;28;20687;-67
2021/08/16 09:28:55;;;;;;;8.18;4.53;;;;;;;;;;4973215;28;20443;-66
2021/08/16 09:31:23;;;;;;;8.57;5.32;;;;;;;;;;4973465;28;20023;-67
2021/08/16 09:33:52;;;;;;;6.53;4.35;;;;;;;;;;4973286;28;20150;-66
2021/08/16 09:36:18;;;;;;;8.55;4.22;;;;;;;;;;4972833;28;20494;-66
2021/08/16 09:38:43;;;;;;;8.40;4.10;;;;;;;;;;4973318;28;20061;-65
2021/08/16 09:41:19;;;;;;;9.63;5.03;;;;;;;;;;4973081;28;20030;-67
2021/08/16 09:43:44;;;;;;;9.35;4.55;;;;;;;;;;4972694;28;20524;-65
2021/08/16 09:46:14;;;;;;;10.32;5.00;;;;;;;;;;4973252;28;20019;-66
2021/08/16 09:48:39;;;;;;;7.47;4.97;;;;;;;;;;4973209;28;20039;-67
2021/08/16 09:51:04;;;;;;;9.77;6.15;;;;;;;;;;4966563;28;20081;-66
2021/08/16 09:53:30;;;;;;;7.97;5.38;;;;;;;;;;4972979;28;20486;-66
2021/08/16 09:56:02;;;;;;;8.75;6.25;;;;;;;;;;4975964;28;20428;-67
2021/08/16 09:58:28;;;;;;;8.93;4.82;;;;;;;;;;4972511;28;20485;-66
2021/08/16 10:00:53;;;;;;;7.63;4.60;;;;;;;;;;4973028;28;20022;-66
2021/08/16 10:03:19;;;;;;;7.80;5.00;;;;;;;;;;4972461;28;20022;-66
2021/08/16 10:05:45;;;;;;;9.35;5.25;;;;;;;;;;4972942;28;20019;-67
2021/08/16 10:08:13;;;;;;;8.60;5.07;;;;;;;;;;4986797;28;20367;-66
2021/08/16 10:10:39;;;;;;;9.82;5.50;;;;;;;;;;4972586;28;20474;-67
2021/08/16 10:13:06;;;;;;;8.30;5.10;;;;;;;;;;4972724;28;20089;-66
2021/08/16 10:15:36;;;;;;;8.95;5.03;;;;;;;;;;4972552;28;20121;-67
2021/08/16 10:18:02;;;;;;;8.27;5.38;;;;;;;;;;4972846;28;20102;-67
2021/08/16 10:20:28;;;;;;;7.20;3.90;;;;;;;;;;4972327;28;20045;-66
2021/08/16 10:22:53;;;;;;;7.75;4.38;;;;;;;;;;4972704;28;20026;-66
2021/08/16 10:25:19;;;;;;;11.52;5.40;;;;;;;;;;4972024;28;20027;-67
2021/08/16 10:27:45;;;;;;;9.18;5.50;;;;;;;;;;4972385;28;20034;-66
2021/08/16 10:30:14;;;;;;;8.40;5.68;;;;;;;;;;4972641;28;20054;-67
2021/08/16 10:32:39;;;;;;;8.75;5.40;;;;;;;;;;4972343;28;20046;-66
2021/08/16 10:35:14;;;;;;;8.25;5.22;;;;;;;;;;4972429;28;20478;-67
2021/08/16 10:37:41;;;;;;;7.93;5.65;;;;;;;;;;4972263;28;20023;-66
2021/08/16 10:40:17;;;;;;;9.27;5.57;;;;;;;;;;4972184;28;20118;-67
2021/08/16 10:42:42;;;;;;;7.15;5.35;;;;;;;;;;4972113;28;20027;-66
2021/08/16 10:45:09;;;;;;;7.32;5.15;;;;;;;;;;4971810;28;20479;-67
2021/08/16 10:47:35;;;;;;;8.50;5.78;;;;;;;;;;4971898;28;20517;-66
2021/08/16 10:50:10;;;;;;;9.85;6.07;;;;;;;;;;4971597;28;20023;-67
2021/08/16 10:52:37;;;;;;;10.38;6.82;;;;;;;;;;4971857;28;20022;-66
2021/08/16 10:55:13;;;;;;;12.15;7.30;;;;;;;;;;4973114;28;20026;-66
2021/08/16 10:57:39;;;;;;;9.10;6.25;;;;;;;;;;4973424;28;20103;-66
2021/08/16 11:00:05;;;;;;;9.95;6.72;;;;;;;;;;4986624;28;20509;-66
2021/08/16 11:02:31;;;;;;;12.32;7.75;;;;;;;;;;4971509;28;20029;-67
2021/08/16 11:04:56;;;;;;;9.70;7.13;;;;;;;;;;4970457;28;20029;-67
2021/08/16 11:07:22;;;;;;;16.98;7.65;;;;;;;;;;4971775;28;20030;-67
2021/08/16 11:09:54;;;;;;;10.00;6.95;;;;;;;;;;4971203;28;20081;-66
2021/08/16 11:12:29;;;;;;;12.88;7.72;;;;;;;;;;4963420;28;20038;-67
2021/08/16 11:14:54;;;;;;;12.15;8.00;;;;;;;;;;4971551;28;20050;-66
2021/08/16 11:17:24;;;;;;;12.80;7.53;;;;;;;;;;4970932;28;20054;-66
2021/08/16 11:19:49;;;;;;;15.25;8.63;;;;;;;;;;4971354;28;20797;-67
2021/08/16 11:22:15;;;;;;;13.07;9.40;;;;;;;;;;4971300;28;20050;-66
2021/08/16 11:24:41;;;;;;;14.57;8.70;;;;;;;;;;4970940;28;20267;-67
2021/08/16 11:27:08;;;;;;;13.85;8.48;;;;;;;;;;4973277;28;20038;-67
2021/08/16 11:29:33;;;;;;;17.52;9.30;;;;;;;;;;4969470;28;20442;-68
2021/08/16 11:32:01;;;;;;;13.48;8.43;;;;;;;;;;4970962;28;20065;-67
2021/08/16 11:34:27;;;;;;;13.68;9.35;;;;;;;;;;4971314;28;20030;-67
2021/08/16 11:36:53;;;;;;;17.50;9.50;;;;;;;;;;4970837;28;20798;-66
2021/08/16 11:39:27;;;;;;;13.65;8.93;;;;;;;;;;4971336;28;20055;-65
2021/08/16 11:41:55;;;;;;;15.98;9.63;;;;;;;;;;4971297;28;20596;-66
2021/08/16 11:44:20;;;;;;;15.75;9.38;;;;;;;;;;4970511;28;20055;-66
2021/08/16 11:46:45;;;;;;;14.83;10.10;;;;;;;;;;4971017;28;20019;-67
2021/08/16 11:49:11;;;;;;;15.00;8.87;;;;;;;;;;4970508;28;20274;-67
2021/08/16 11:51:37;;;;;;;13.40;9.43;;;;;;;;;;4970619;28;20259;-67
2021/08/16 11:54:03;;;;;;;13.30;9.07;;;;;;;;;;4970753;28;20018;-66
2021/08/16 11:56:28;;;;;;;13.65;9.98;;;;;;;;;;4970878;28;20125;-66
2021/08/16 11:58:53;;;;;;;14.98;10.52;;;;;;;;;;4971054;28;20011;-67
2021/08/16 12:01:19;;;;;;;15.73;9.70;;;;;;;;;;4970705;28;20038;-67
2021/08/16 12:03:44;;;;;;;14.13;9.80;;;;;;;;;;4971191;28;20023;-66
2021/08/16 12:06:11;;;;;;;16.52;10.35;;;;;;;;;;4970162;28;20027;-67
2021/08/16 12:08:36;;;;;;;19.58;11.10;;;;;;;;;;4970673;28;20035;-66
2021/08/16 12:11:09;;;;;;;26.85;15.18;;;;;;;;;;4970321;28;20089;-67
2021/08/16 12:13:34;;;;;;;20.42;14.38;;;;;;;;;;4970718;28;20085;-66
2021/08/16 12:15:59;;;;;;;22.48;13.68;;;;;;;;;;4970584;28;20023;-66
2021/08/16 12:18:28;;;;;;;20.33;13.10;;;;;;;;;;4970495;28;20066;-67
2021/08/16 12:20:54;;;;;;;26.00;13.95;;;;;;;;;;4970691;28;20023;-67
2021/08/16 12:23:38;;;;;;;18.35;11.73;;;;;;;;;;4970190;28;20043;-67
2021/08/16 12:26:06;;;;;;;14.75;10.27;;;;;;;;;;4973199;28;20034;-67
2021/08/16 12:28:39;;;;;;;17.13;11.60;;;;;;;;;;4964196;28;20269;-66
2021/08/16 12:31:15;;;;;;;18.08;11.13;;;;;;;;;;4964799;28;20033;-66
2021/08/16 12:33:50;;;;;;;18.25;11.93;;;;;;;;;;4970574;28;20134;-67
2021/08/16 12:36:20;;;;;;;18.58;12.10;;;;;;;;;;4969749;28;20023;-67
2021/08/16 12:38:45;;;;;;;;;;;;;;;;;;4970795;28;20054;-66
2021/08/16 12:41:10;;;;;;;18.20;11.30;;;;;;;;;;4969986;28;19906;-66
2021/08/16 12:43:37;;;;;;;20.40;11.95;;;;;;;;;;4970105;28;20066;-67
2021/08/16 12:46:02;;;;;;;17.90;11.35;;;;;;;;;;4969844;28;20101;-66
2021/08/16 12:48:36;;;;;;;15.65;11.20;;;;;;;;;;4969883;28;20106;-68
2021/08/16 12:51:01;;;;;;;16.25;10.95;;;;;;;;;;4969940;28;20050;-68
2021/08/16 12:53:26;;;;;;;19.50;11.27;;;;;;;;;;4970154;28;20065;-67
2021/08/16 12:55:51;;;;;;;17.80;12.07;;;;;;;;;;4970623;28;20676;-67
2021/08/16 12:58:16;;;;;;;20.63;12.10;;;;;;;;;;4969742;28;20301;-66
2021/08/16 13:00:41;;;;;;;17.37;12.30;;;;;;;;;;4970170;28;20278;-67
2021/08/16 13:03:11;;;;;;;19.17;13.10;;;;;;;;;;4969427;28;20393;-67
2021/08/16 13:05:36;;;;;;;19.10;11.77;;;;;;;;;;4970019;28;20321;-67
2021/08/16 13:08:01;;;;;;;17.27;11.68;;;;;;;;;;4969741;28;20038;-67
2021/08/16 13:10:26;;;;;;;20.15;11.80;;;;;;;;;;4969565;28;20277;-67
2021/08/16 13:12:51;;;;;;;16.87;12.40;;;;;;;;;;4970195;28;20031;-68
2021/08/16 13:15:16;;;;;;;17.08;11.43;;;;;;;;;;4969307;28;20754;-67
2021/08/16 13:17:42;;;;;;;17.63;10.87;;;;;;;;;;4969897;28;20064;-67
2021/08/16 13:20:07;;;;;;;15.88;10.52;;;;;;;;;;4969662;28;20329;-67
2021/08/16 13:22:34;;;;;;;16.80;10.55;;;;;;;;;;4970230;28;20270;-68
2021/08/16 13:24:59;;;;;;;17.80;10.77;;;;;;;;;;4969741;28;20446;-67
2021/08/16 13:27:24;;;;;;;18.60;11.77;;;;;;;;;;4970140;28;20138;-67
2021/08/16 13:29:49;;;;;;;23.97;12.33;;;;;;;;;;4970003;28;20286;-67
2021/08/16 13:32:14;;;;;;;21.33;12.88;;;;;;;;;;4969668;28;20297;-66
2021/08/16 13:34:40;;;;;;;17.45;11.80;;;;;;;;;;4972818;28;20126;-67
2021/08/16 13:37:07;;;;;;;17.17;11.38;;;;;;;;;;4977134;28;20058;-67
2021/08/16 13:39:32;;;;;;;19.40;11.95;;;;;;;;;;4973299;28;20047;-67
2021/08/16 13:41:57;;;;;;;18.20;12.38;;;;;;;;;;4972768;28;20027;-67
2021/08/16 13:44:22;;;;;;;18.45;12.82;;;;;;;;;;4973273;28;20055;-67
2021/08/16 13:46:48;;;;;;;21.63;13.15;;;;;;;;;;4972398;28;20041;-66
2021/08/16 13:49:13;;;;;;;22.15;12.43;;;;;;;;;;4973009;28;20019;-67
2021/08/16 13:51:38;;;;;;;18.40;13.10;;;;;;;;;;4973184;28;20062;-67
2021/08/16 13:54:13;;;;;;;20.30;12.88;;;;;;;;;;4972742;28;20266;-68
2021/08/16 13:56:38;;;;;;;18.85;12.90;;;;;;;;;;4975192;28;20042;-66
2021/08/16 13:59:03;;;;;;;19.48;11.80;;;;;;;;;;4972609;28;20045;-67
2021/08/16 14:01:29;;;;;;;18.88;11.73;;;;;;;;;;4973136;28;20022;-67
2021/08/16 14:03:54;;;;;;;23.13;12.18;;;;;;;;;;4972571;28;20123;-65
2021/08/16 14:06:19;;;;;;;19.40;12.27;;;;;;;;;;4972698;28;20061;-67
2021/08/16 14:08:45;;;;;;;19.17;13.85;;;;;;;;;;4972490;28;20298;-66
2021/08/16 14:11:10;;;;;;;16.30;11.80;;;;;;;;;;4972555;28;20071;-66
2021/08/16 14:13:35;;;;;;;17.98;9.98;;;;;;;;;;4972211;28;20097;-67
2021/08/16 14:16:00;;;;;;;14.15;10.80;;;;;;;;;;4972623;28;20522;-67
2021/08/16 14:18:26;;;;;;;18.87;11.63;;;;;;;;;;4972105;28;20031;-67
2021/08/16 14:20:51;;;;;;;17.33;11.02;;;;;;;;;;4975853;28;20365;-67
2021/08/16 14:23:16;;;;;;;23.75;11.48;;;;;;;;;;4972220;28;20031;-66
2021/08/16 14:25:41;;;;;;;16.95;10.15;;;;;;;;;;4978374;28;20026;-66